Time;durP1;ratioP1;P1;durP2;ratioP2;P2;SDS_P1;SDS_P2;PMS_P1;PMS_P2;Temp;Humidity;BMP_temperature;BMP_pressure;BME280_temperature;BME280_humidity;BME280_pressure;Samples;Min_cycle;Max_cycle;Signal;HPM_P1;HPM_P2
2022/03/22 00:00:35;;;;;;;36.45;8.43;;;;;;;5.90;37.32;97615.25;5050004;28;20056;-75
2022/03/22 00:03:05;;;;;;;29.38;7.78;;;;;;;5.92;36.88;97618.53;5050068;28;20059;-72
2022/03/22 00:05:31;;;;;;;40.50;8.73;;;;;;;5.92;36.31;97615.03;5049500;28;20049;-73
2022/03/22 00:08:00;;;;;;;35.50;8.43;;;;;;;5.91;36.86;97622.31;5049316;28;20148;-72
2022/03/22 00:10:27;;;;;;;25.45;7.28;;;;;;;5.88;37.15;97622.78;5049229;28;20053;-72
2022/03/22 00:12:55;;;;;;;29.38;8.05;;;;;;;5.84;36.84;97618.97;5050394;28;20399;-72
2022/03/22 00:15:22;;;;;;;30.88;8.05;;;;;;;5.82;37.27;97618.41;5047584;28;20053;-73
2022/03/22 00:17:48;;;;;;;40.90;8.82;;;;;;;5.79;37.46;97618.91;5049194;28;20052;-73
2022/03/22 00:20:15;;;;;;;32.70;7.95;;;;;;;5.77;38.74;97621.06;5048535;28;20045;-73
2022/03/22 00:22:42;;;;;;;39.50;8.55;;;;;;;5.72;37.56;97618.31;5049647;28;20049;-72
2022/03/22 00:25:10;;;;;;;36.00;7.80;;;;;;;5.68;37.87;97617.19;5048975;28;20051;-73
2022/03/22 00:27:51;;;;;;;39.30;7.75;;;;;;;5.65;38.11;97633.94;5048671;28;20618;-72
2022/03/22 00:30:21;;;;;;;30.65;7.47;;;;;;;5.62;38.40;97615.50;5049638;28;20045;-73
2022/03/22 00:32:50;;;;;;;27.88;7.47;;;;;;;5.53;39.06;97614.34;5048710;28;20547;-72
2022/03/22 00:35:18;;;;;;;32.92;7.40;;;;;;;5.47;38.88;97613.47;5049130;28;20052;-72
2022/03/22 00:37:46;;;;;;;30.65;7.70;;;;;;;5.43;38.71;97617.78;5048141;28;20044;-72
2022/03/22 00:40:14;;;;;;;32.78;8.05;;;;;;;5.39;38.52;97616.63;5049149;28;20080;-73
2022/03/22 00:42:40;;;;;;;32.25;7.63;;;;;;;5.33;39.25;97610.38;5048950;28;20076;-73
2022/03/22 00:45:09;;;;;;;38.42;8.75;;;;;;;5.28;38.96;97606.78;5047287;28;20052;-72
2022/03/22 00:47:36;;;;;;;35.13;8.40;;;;;;;5.26;38.93;97604.31;5048388;28;20055;-73
2022/03/22 00:50:03;;;;;;;40.75;9.10;;;;;;;5.20;38.06;97608.03;5048149;28;20049;-73
2022/03/22 00:52:30;;;;;;;28.65;7.40;;;;;;;5.14;38.26;97603.66;5049089;28;20056;-72
2022/03/22 00:54:57;;;;;;;35.35;8.05;;;;;;;5.12;37.80;97597.72;5048101;28;20443;-72
2022/03/22 00:57:24;;;;;;;37.30;7.68;;;;;;;5.09;38.04;97603.59;5048174;28;20407;-73
2022/03/22 01:00:04;;;;;;;32.78;7.30;;;;;;;5.06;38.28;97599.50;5048401;28;20045;-72
2022/03/22 01:02:34;;;;;;;32.88;7.78;;;;;;;5.02;38.10;97602.97;5048540;28;20041;-74
2022/03/22 01:05:03;;;;;;;34.65;7.82;;;;;;;5.01;37.54;97612.13;5048660;28;20052;-72
2022/03/22 01:07:30;;;;;;;42.05;8.35;;;;;;;4.99;37.93;97604.28;5047505;28;20052;-73
2022/03/22 01:09:56;;;;;;;27.25;7.25;;;;;;;5.00;37.91;97602.41;5049108;28;20048;-73
2022/03/22 01:12:23;;;;;;;32.47;7.78;;;;;;;5.01;38.77;97595.94;5047662;28;20044;-73
2022/03/22 01:14:50;;;;;;;34.28;8.02;;;;;;;4.99;38.82;97604.28;5040976;28;20081;-73
2022/03/22 01:17:17;;;;;;;33.72;7.45;;;;;;;4.97;38.00;97601.84;5027023;28;20492;-73
2022/03/22 01:19:45;;;;;;;36.47;8.30;;;;;;;4.97;38.58;97598.34;5028764;28;20053;-73
2022/03/22 01:22:16;;;;;;;24.13;7.00;;;;;;;4.97;38.25;97607.25;5027808;28;20041;-73
2022/03/22 01:24:43;;;;;;;38.97;8.73;;;;;;;4.96;38.27;97597.53;5028487;28;20140;-73
2022/03/22 01:27:10;;;;;;;30.17;7.25;;;;;;;4.96;38.53;97594.81;5027516;28;20049;-73
2022/03/22 01:29:37;;;;;;;44.00;9.27;;;;;;;4.95;38.35;97603.16;5027835;28;20443;-73
2022/03/22 01:32:05;;;;;;;28.77;6.80;;;;;;;4.92;38.41;97591.00;5027868;28;20107;-73
2022/03/22 01:34:31;;;;;;;37.50;7.75;;;;;;;4.91;38.90;97596.66;5027354;28;20543;-73
2022/03/22 01:36:58;;;;;;;37.20;8.23;;;;;;;4.89;39.43;97591.47;5027944;28;20057;-73
2022/03/22 01:39:26;;;;;;;20.88;6.70;;;;;;;4.88;38.76;97597.94;5027086;28;20087;-73
2022/03/22 01:41:52;;;;;;;33.03;8.02;;;;;;;4.87;38.87;97601.72;5028724;28;20052;-73
2022/03/22 01:44:19;;;;;;;30.50;7.50;;;;;;;4.85;38.32;97598.44;5030424;28;20053;-73
2022/03/22 01:46:46;;;;;;;39.42;8.40;;;;;;;4.83;39.99;97595.19;5047041;28;20059;-74
2022/03/22 01:49:13;;;;;;;32.85;7.85;;;;;;;4.84;39.75;97591.41;5046809;28;20516;-73
2022/03/22 01:51:42;;;;;;;60.90;8.68;;;;;;;4.80;39.93;97592.97;5047705;28;20045;-73
2022/03/22 01:54:09;;;;;;;43.85;7.20;;;;;;;4.78;39.27;97594.31;5047889;28;20045;-73
2022/03/22 01:56:37;;;;;;;100.68;21.55;;;;;;;4.75;39.47;97582.16;5046317;28;20049;-73
2022/03/22 01:59:03;;;;;;;57.92;14.18;;;;;;;4.72;39.33;97588.03;5047424;28;20052;-73
2022/03/22 02:07:00;;;;;;;76.53;19.38;;;;;;;4.42;40.20;97594.63;5046967;28;20094;-73
2022/03/22 02:09:26;;;;;;;64.85;10.88;;;;;;;4.37;41.41;97596.44;5046850;28;20041;-75
2022/03/22 02:11:55;;;;;;;68.88;16.08;;;;;;;4.31;41.33;97592.03;5047978;28;20075;-73
2022/03/22 02:14:21;;;;;;;29.88;8.73;;;;;;;4.21;41.36;97592.69;5045370;28;20052;-74
2022/03/22 02:16:48;;;;;;;26.92;9.02;;;;;;;4.17;41.79;97588.88;5047456;28;20534;-73
2022/03/22 02:19:15;;;;;;;24.40;8.25;;;;;;;4.13;42.01;97585.03;5045733;28;20679;-73
2022/03/22 02:21:43;;;;;;;23.20;7.93;;;;;;;4.12;41.69;97588.78;5047986;28;20774;-73
2022/03/22 02:24:11;;;;;;;24.20;7.65;;;;;;;4.03;41.55;97584.88;5046476;28;20049;-73
2022/03/22 02:26:38;;;;;;;35.35;8.88;;;;;;;3.95;41.57;97582.59;5046873;28;20049;-73
2022/03/22 02:29:05;;;;;;;25.98;8.30;;;;;;;3.90;41.44;97586.03;5046146;28;20049;-72
2022/03/22 02:31:32;;;;;;;33.95;9.07;;;;;;;3.87;41.68;97575.75;5046825;28;20060;-73
2022/03/22 02:33:59;;;;;;;24.98;8.13;;;;;;;3.83;41.41;97575.41;5047231;28;20049;-73
2022/03/22 02:36:26;;;;;;;32.28;9.10;;;;;;;3.83;41.60;97575.41;5045624;28;20064;-73
2022/03/22 02:38:52;;;;;;;23.15;7.10;;;;;;;3.82;41.96;97573.78;5046850;28;20110;-73
2022/03/22 02:41:22;;;;;;;22.33;7.35;;;;;;;3.83;42.17;97575.41;5046027;28;20049;-73
2022/03/22 02:43:50;;;;;;;23.20;7.70;;;;;;;3.84;41.74;97577.03;5047387;28;20068;-73
2022/03/22 02:46:17;;;;;;;24.77;7.90;;;;;;;3.83;42.08;97578.09;5025682;28;20073;-73
2022/03/22 02:48:44;;;;;;;30.25;9.07;;;;;;;3.79;42.98;97585.03;5026587;28;20049;-73
2022/03/22 02:51:10;;;;;;;22.30;8.38;;;;;;;3.74;42.87;97584.94;5025703;28;20049;-74
2022/03/22 02:53:37;;;;;;;31.25;8.50;;;;;;;3.69;43.68;97584.88;5026734;28;20057;-73
2022/03/22 02:56:04;;;;;;;29.88;8.18;;;;;;;3.65;43.10;97583.72;5026184;28;20053;-73
2022/03/22 02:58:34;;;;;;;27.20;8.38;;;;;;;3.61;42.60;97583.41;5026054;28;20702;-73
2022/03/22 03:01:00;;;;;;;18.85;7.00;;;;;;;3.57;42.28;97586.81;5027482;28;20053;-73
2022/03/22 03:03:27;;;;;;;29.42;8.43;;;;;;;3.54;42.30;97581.91;5025873;28;20053;-73
2022/03/22 03:05:54;;;;;;;33.22;8.48;;;;;;;3.49;42.08;97589.91;5026820;28;20053;-73
2022/03/22 03:08:21;;;;;;;22.90;6.68;;;;;;;3.47;41.92;97587.44;5024600;28;20064;-72
2022/03/22 03:10:48;;;;;;;30.50;8.52;;;;;;;3.46;41.80;97590.41;5027270;28;20504;-73
2022/03/22 03:13:15;;;;;;;31.08;8.23;;;;;;;3.44;42.44;97595.19;5026035;28;20049;-73
2022/03/22 03:15:44;;;;;;;29.75;8.18;;;;;;;3.40;42.37;97593.00;5041521;28;20044;-73
2022/03/22 03:18:10;;;;;;;25.33;7.32;;;;;;;3.39;42.69;97591.38;5045564;28;20895;-73
2022/03/22 03:20:37;;;;;;;28.60;8.02;;;;;;;3.38;42.65;97594.28;5046475;28;20057;-73
2022/03/22 03:23:03;;;;;;;27.80;7.68;;;;;;;3.35;43.54;97600.16;5046431;28;20439;-73
2022/03/22 03:25:30;;;;;;;32.72;8.55;;;;;;;3.32;43.55;97596.06;5045754;28;20044;-73
2022/03/22 03:27:56;;;;;;;25.33;7.82;;;;;;;3.31;41.99;97597.13;5046321;28;20551;-73
2022/03/22 03:30:23;;;;;;;23.98;7.53;;;;;;;3.28;42.41;97600.28;5045567;28;20052;-73
2022/03/22 03:32:50;;;;;;;26.10;7.18;;;;;;;3.26;43.24;97602.41;5046877;28;20053;-74
2022/03/22 03:35:17;;;;;;;30.15;7.95;;;;;;;3.24;43.41;97611.81;5045274;28;20515;-73
2022/03/22 03:37:44;;;;;;;36.22;8.85;;;;;;;3.21;42.43;97609.59;5045858;28;20068;-73
2022/03/22 03:40:12;;;;;;;22.25;7.18;;;;;;;3.19;42.35;97607.13;5045621;28;20056;-73
2022/03/22 03:42:42;;;;;;;35.40;8.63;;;;;;;3.18;43.72;97605.47;5041029;28;20050;-73
2022/03/22 03:47:57;;;;;;;33.08;8.70;;;;;;;3.08;42.88;97595.34;5045062;28;20059;-73
2022/03/22 03:50:24;;;;;;;25.77;7.85;;;;;;;3.05;43.07;97600.41;5046401;28;20408;-74
2022/03/22 03:52:50;;;;;;;23.65;7.57;;;;;;;2.99;43.98;97602.16;5045726;28;20060;-74
2022/03/22 03:55:17;;;;;;;30.25;8.60;;;;;;;2.92;44.19;97601.47;5046243;28;20779;-72
2022/03/22 03:57:44;;;;;;;24.48;7.82;;;;;;;2.87;43.99;97601.38;5044984;28;20052;-72
2022/03/22 04:00:12;;;;;;;30.58;8.30;;;;;;;2.73;44.04;97597.31;5045782;28;20045;-72
2022/03/22 04:02:40;;;;;;;23.20;7.60;;;;;;;2.63;44.24;97597.94;5046074;28;20631;-72
2022/03/22 04:05:09;;;;;;;39.38;9.13;;;;;;;2.59;44.02;97599.44;5045194;28;20075;-72
2022/03/22 04:07:35;;;;;;;33.80;8.85;;;;;;;2.56;44.55;97608.81;5045754;28;20051;-72
2022/03/22 04:10:01;;;;;;;32.33;8.93;;;;;;;2.53;45.96;97605.78;5044787;28;20052;-72
2022/03/22 04:12:28;;;;;;;25.55;7.57;;;;;;;2.51;45.79;97608.72;5044286;28;20146;-72
2022/03/22 04:14:54;;;;;;;27.88;7.78;;;;;;;2.44;46.44;97605.31;5045721;28;20053;-73
2022/03/22 04:17:22;;;;;;;33.33;9.07;;;;;;;2.38;46.81;97605.44;5045253;28;20500;-72
2022/03/22 04:19:48;;;;;;;26.15;7.32;;;;;;;2.32;47.04;97597.25;5046161;28;20065;-73
2022/03/22 04:22:18;;;;;;;29.80;8.55;;;;;;;2.31;46.98;97609.06;5049471;28;20061;-74
2022/03/22 04:24:44;;;;;;;25.77;8.05;;;;;;;2.34;46.66;97610.44;5049689;28;20061;-73
2022/03/22 04:32:42;;;;;;;25.95;7.75;;;;;;;2.35;46.68;97620.19;5048897;28;20060;-73
2022/03/22 04:35:09;;;;;;;34.90;9.35;;;;;;;2.33;47.17;97623.06;5049104;28;20049;-75
2022/03/22 04:37:37;;;;;;;26.85;8.20;;;;;;;2.34;46.62;97627.41;5048514;28;20095;-73
2022/03/22 04:40:05;;;;;;;31.50;8.65;;;;;;;2.32;46.54;97624.13;5048844;28;20053;-72
2022/03/22 04:42:32;;;;;;;24.10;7.63;;;;;;;2.32;46.37;97623.31;5047291;28;20052;-72
2022/03/22 04:44:58;;;;;;;25.33;7.93;;;;;;;2.32;45.91;97626.81;5049007;28;20136;-72
2022/03/22 04:47:26;;;;;;;29.38;7.90;;;;;;;2.32;46.10;97626.81;5048462;28;20049;-73
2022/03/22 04:49:52;;;;;;;23.88;6.95;;;;;;;2.29;46.49;97624.59;5048650;28;20140;-72
2022/03/22 04:57:49;;;;;;;30.23;8.70;;;;;;;2.17;47.43;97626.47;5048690;28;20055;-73
2022/03/22 05:00:16;;;;;;;30.00;8.18;;;;;;;2.14;47.95;97626.94;5048450;28;20056;-73
2022/03/22 05:02:42;;;;;;;24.50;8.23;;;;;;;2.13;48.25;97624.47;5048890;28;20120;-73
2022/03/22 05:05:09;;;;;;;34.55;9.27;;;;;;;2.09;48.92;97626.84;5048501;28;20053;-73
2022/03/22 05:07:36;;;;;;;41.25;9.60;;;;;;;2.06;48.14;97629.97;5047580;28;20048;-73
2022/03/22 05:10:05;;;;;;;35.80;8.45;;;;;;;2.03;47.67;97625.84;5048271;28;20048;-73
2022/03/22 05:12:31;;;;;;;28.05;7.97;;;;;;;1.98;47.59;97625.75;5045318;28;20060;-73
2022/03/22 05:14:58;;;;;;;29.45;7.93;;;;;;;1.96;47.41;97629.72;5048887;28;20791;-73
2022/03/22 05:17:24;;;;;;;34.08;8.95;;;;;;;1.94;48.61;97626.47;5047007;28;20518;-73
2022/03/22 05:19:51;;;;;;;40.92;9.57;;;;;;;1.94;48.55;97637.22;5048246;28;20052;-73
2022/03/22 05:22:17;;;;;;;34.50;8.77;;;;;;;1.94;49.04;97639.88;5047905;28;20059;-73
2022/03/22 05:24:44;;;;;;;43.40;9.48;;;;;;;1.95;49.14;97636.97;5047954;28;20674;-73
2022/03/22 05:27:12;;;;;;;27.27;8.52;;;;;;;1.93;49.78;97636.38;5047380;28;20057;-72
2022/03/22 05:29:38;;;;;;;32.97;8.65;;;;;;;1.94;49.10;97631.84;5047836;28;20049;-72
2022/03/22 05:32:06;;;;;;;35.72;8.63;;;;;;;1.94;48.55;97638.03;5047509;28;20060;-73
2022/03/22 05:34:32;;;;;;;33.22;8.57;;;;;;;1.95;48.61;97638.84;5047874;28;20052;-72
2022/03/22 05:36:59;;;;;;;38.90;9.05;;;;;;;1.93;48.92;97636.38;5047880;28;20049;-72
2022/03/22 05:39:26;;;;;;;27.67;7.70;;;;;;;1.94;48.69;97637.22;5046772;28;20577;-72
2022/03/22 05:41:52;;;;;;;38.08;9.75;;;;;;;1.96;48.91;97640.47;5046128;28;20132;-73
2022/03/22 05:44:21;;;;;;;31.83;8.80;;;;;;;1.97;48.91;97642.91;5047369;28;20053;-72
2022/03/22 05:46:47;;;;;;;36.15;9.40;;;;;;;1.98;49.06;97649.09;5047411;28;20054;-73
2022/03/22 05:49:14;;;;;;;28.20;9.65;;;;;;;2.00;48.95;97644.34;5047113;28;20056;-72
2022/03/22 05:51:41;;;;;;;44.45;10.30;;;;;;;2.05;49.05;97650.66;5047019;28;20131;-73
2022/03/22 05:54:07;;;;;;;30.77;8.73;;;;;;;2.07;48.37;97642.34;5048119;28;20052;-73
2022/03/22 05:56:34;;;;;;;37.30;9.52;;;;;;;2.11;48.28;97635.47;5046649;28;20056;-73
2022/03/22 05:59:00;;;;;;;35.85;8.90;;;;;;;2.15;47.93;97639.31;5048122;28;20049;-73
2022/03/22 06:01:29;;;;;;;31.30;8.60;;;;;;;2.21;48.00;97643.78;5047185;28;20056;-73
2022/03/22 06:03:55;;;;;;;31.88;8.68;;;;;;;2.27;47.13;97642.84;5047996;28;20079;-73
2022/03/22 06:06:22;;;;;;;30.38;9.10;;;;;;;2.35;46.77;97649.75;5046518;28;20059;-73
2022/03/22 06:08:49;;;;;;;35.20;9.15;;;;;;;2.42;46.74;97649.63;5047410;28;20055;-73
2022/03/22 06:11:17;;;;;;;36.70;8.70;;;;;;;2.47;45.45;97655.13;5045057;28;20051;-72
2022/03/22 06:13:44;;;;;;;32.28;9.13;;;;;;;2.50;44.48;97650.06;5040875;28;20053;-72
2022/03/22 06:16:10;;;;;;;36.05;8.65;;;;;;;2.55;44.14;97652.88;5026366;28;20053;-73
2022/03/22 06:18:38;;;;;;;28.55;8.30;;;;;;;2.61;44.12;97654.66;5039992;28;20048;-73
2022/03/22 06:21:04;;;;;;;34.10;8.90;;;;;;;2.68;44.43;97651.81;5047479;28;20052;-75
2022/03/22 06:23:31;;;;;;;28.63;8.27;;;;;;;2.72;44.06;97655.69;5047087;28;20044;-74
2022/03/22 06:25:57;;;;;;;34.20;9.70;;;;;;;2.81;44.09;97648.88;5047521;28;20048;-73
2022/03/22 06:28:24;;;;;;;24.77;8.13;;;;;;;2.90;44.04;97648.50;5046490;28;20098;-72
2022/03/22 06:30:51;;;;;;;39.15;9.90;;;;;;;2.97;43.80;97655.38;5047725;28;20045;-73
2022/03/22 06:33:17;;;;;;;26.45;7.70;;;;;;;3.01;42.57;97653.88;5046540;28;20057;-73
2022/03/22 06:35:47;;;;;;;41.22;9.70;;;;;;;3.06;42.93;97653.16;5046736;28;20065;-73
2022/03/22 06:38:14;;;;;;;35.85;9.55;;;;;;;3.14;43.33;97652.78;5046270;28;20056;-75
2022/03/22 06:40:40;;;;;;;41.03;10.25;;;;;;;3.21;43.05;97658.84;5046908;28;20056;-72
2022/03/22 06:43:09;;;;;;;34.28;10.50;;;;;;;3.28;42.95;97654.13;5044432;28;20053;-75
2022/03/22 06:45:36;;;;;;;36.33;10.07;;;;;;;3.37;42.46;97657.28;5046986;28;20045;-74
2022/03/22 06:48:03;;;;;;;39.50;8.90;;;;;;;3.41;43.46;97658.44;5046622;28;20053;-73
2022/03/22 06:50:30;;;;;;;35.63;8.63;;;;;;;3.51;42.85;97652.44;5046291;28;20056;-73
2022/03/22 06:52:58;;;;;;;31.55;9.05;;;;;;;3.62;42.83;97655.06;5046790;28;20045;-73
2022/03/22 06:55:25;;;;;;;29.25;8.73;;;;;;;3.70;42.26;97659.22;5046114;28;20052;-74
2022/03/22 06:57:52;;;;;;;41.35;9.52;;;;;;;3.78;41.96;97658.84;5046229;28;20059;-73
2022/03/22 07:00:20;;;;;;;30.02;8.75;;;;;;;3.89;42.00;97657.97;5046504;28;20135;-73
2022/03/22 07:02:47;;;;;;;28.48;9.25;;;;;;;3.98;42.05;97662.97;5046830;28;20475;-74
2022/03/22 07:05:14;;;;;;;22.20;7.63;;;;;;;4.08;41.21;97660.44;5046237;28;20059;-74
2022/03/22 07:07:41;;;;;;;37.33;9.13;;;;;;;4.18;41.39;97668.69;5045628;28;20056;-73
2022/03/22 07:10:11;;;;;;;30.70;9.35;;;;;;;4.35;41.86;97666.81;5046120;28;20746;-73
2022/03/22 07:12:47;;;;;;;25.35;8.38;;;;;;;4.53;41.77;97670.31;5030510;28;20691;-73
2022/03/22 07:15:13;;;;;;;37.42;9.43;;;;;;;5.08;41.00;97680.28;5026391;28;20054;-73
2022/03/22 07:17:40;;;;;;;27.08;8.13;;;;;;;6.04;39.11;97677.03;5025854;28;20041;-73
2022/03/22 07:20:08;;;;;;;27.65;8.15;;;;;;;7.10;36.84;97681.59;5026631;28;20053;-73
2022/03/22 07:22:34;;;;;;;29.40;8.88;;;;;;;7.94;34.13;97684.09;5027054;28;20054;-73
2022/03/22 07:25:01;;;;;;;34.83;8.88;;;;;;;8.68;32.17;97681.97;5026404;28;20048;-73
2022/03/22 07:27:30;;;;;;;27.50;8.43;;;;;;;9.16;30.82;97680.53;5026251;28;20045;-73
2022/03/22 07:29:56;;;;;;;29.40;9.32;;;;;;;9.85;30.24;97676.16;5025797;28;20049;-73
2022/03/22 07:32:23;;;;;;;26.23;9.13;;;;;;;10.38;28.95;97679.09;5026420;28;20049;-73
2022/03/22 07:34:50;;;;;;;24.15;7.72;;;;;;;10.65;27.73;97681.34;5025953;28;20053;-73
2022/03/22 07:37:17;;;;;;;26.80;8.75;;;;;;;11.26;27.84;97682.63;5025810;28;20060;-73
2022/03/22 07:39:43;;;;;;;25.92;8.35;;;;;;;11.72;26.66;97697.34;5025122;28;20586;-73
2022/03/22 07:42:10;;;;;;;20.67;7.40;;;;;;;12.19;25.51;97686.66;5036596;28;20466;-73
2022/03/22 07:44:39;;;;;;;20.70;7.88;;;;;;;12.41;24.90;97694.22;5046225;28;20053;-73
2022/03/22 07:47:06;;;;;;;25.05;8.85;;;;;;;12.76;24.54;97690.91;5045836;28;20067;-73
2022/03/22 07:55:01;;;;;;;34.97;9.90;;;;;;;14.19;24.38;97685.38;5047903;28;20051;-73
2022/03/22 07:57:28;;;;;;;26.75;8.45;;;;;;;14.51;23.93;97681.66;5049372;28;20076;-73
2022/03/22 07:59:56;;;;;;;25.20;8.27;;;;;;;14.90;22.87;97685.63;5050516;28;20103;-73
2022/03/22 08:02:22;;;;;;;27.08;8.27;;;;;;;15.01;22.61;97686.97;5049988;28;20060;-73
2022/03/22 08:04:49;;;;;;;26.98;8.23;;;;;;;15.22;22.79;97687.25;5050917;28;20052;-73
2022/03/22 08:07:16;;;;;;;29.17;8.52;;;;;;;15.19;22.58;97690.66;5050114;28;20065;-73
2022/03/22 08:09:45;;;;;;;33.80;9.88;;;;;;;15.52;22.13;97690.28;5049847;28;20098;-73
2022/03/22 08:12:12;;;;;;;16.88;6.70;;;;;;;15.87;22.02;97696.75;5048096;28;20048;-73
2022/03/22 08:14:39;;;;;;;26.17;8.60;;;;;;;16.00;21.32;97697.72;5049904;28;20049;-73
2022/03/22 08:17:06;;;;;;;24.88;8.23;;;;;;;16.30;22.18;97685.00;5049920;28;20072;-73
2022/03/22 08:19:33;;;;;;;25.33;8.80;;;;;;;16.81;21.07;97688.88;5049283;28;20061;-73
2022/03/22 08:21:59;;;;;;;25.88;8.65;;;;;;;17.28;21.79;97691.66;5050301;28;20670;-74
2022/03/22 08:24:26;;;;;;;21.40;8.10;;;;;;;17.71;21.16;97683.25;5049367;28;20053;-73
2022/03/22 08:26:52;;;;;;;25.08;9.07;;;;;;;17.77;19.92;97687.47;5049717;28;20528;-73
2022/03/22 08:29:19;;;;;;;17.30;7.47;;;;;;;17.84;20.67;97676.72;5049097;28;20056;-73
2022/03/22 08:31:45;;;;;;;25.60;9.55;;;;;;;17.95;19.26;97677.13;5049883;28;20075;-73
2022/03/22 08:34:13;;;;;;;20.00;7.63;;;;;;;18.11;19.89;97685.63;5049493;28;20061;-73
2022/03/22 08:36:40;;;;;;;23.60;8.93;;;;;;;18.29;20.45;97681.63;5048866;28;20080;-73
2022/03/22 08:39:06;;;;;;;28.35;8.90;;;;;;;18.18;19.25;97685.91;5049501;28;20060;-73
2022/03/22 08:41:34;;;;;;;23.55;8.40;;;;;;;18.40;19.98;97674.56;5046719;28;20048;-73
2022/03/22 08:44:00;;;;;;;28.83;8.57;;;;;;;18.46;20.52;97681.47;5050328;28;20576;-73
2022/03/22 08:46:27;;;;;;;28.75;8.65;;;;;;;18.65;19.19;97677.44;5048527;28;20049;-73
2022/03/22 08:48:53;;;;;;;29.88;8.75;;;;;;;18.92;20.45;97682.41;5049460;28;20049;-73
2022/03/22 08:51:24;;;;;;;22.35;8.27;;;;;;;19.39;18.92;97671.00;5048762;28;20049;-73
2022/03/22 08:53:51;;;;;;;32.05;9.07;;;;;;;19.66;19.01;97679.78;5049107;28;20464;-73
2022/03/22 08:56:18;;;;;;;26.15;8.13;;;;;;;19.75;18.29;97680.50;5048813;28;20052;-73
2022/03/22 08:58:45;;;;;;;28.10;9.10;;;;;;;19.92;18.44;97671.94;5048247;28;20281;-73
2022/03/22 09:01:12;;;;;;;26.08;8.85;;;;;;;20.22;18.94;97666.16;5049565;28;20049;-73
2022/03/22 09:03:39;;;;;;;25.55;8.48;;;;;;;20.40;17.93;97667.47;5048745;28;20179;-73
2022/03/22 09:06:12;;;;;;;20.13;8.27;;;;;;;20.26;18.15;97661.53;5047896;28;20073;-73
2022/03/22 09:08:40;;;;;;;;;;;;;;;20.06;19.09;97653.06;5048275;28;20072;-73
2022/03/22 09:11:08;;;;;;;27.92;9.05;;;;;;;20.01;19.30;97653.28;5045327;28;19932;-74
2022/03/22 09:13:35;;;;;;;23.65;8.32;;;;;;;19.76;18.38;97648.94;5028719;28;20107;-73
2022/03/22 09:16:01;;;;;;;32.28;9.45;;;;;;;19.09;18.93;97647.47;5028785;28;20061;-74
2022/03/22 09:18:29;;;;;;;25.85;8.85;;;;;;;18.67;19.86;97662.16;5028299;28;20053;-73
2022/03/22 09:20:56;;;;;;;28.90;9.45;;;;;;;18.50;20.48;97665.88;5028551;28;20053;-73
2022/03/22 09:23:22;;;;;;;27.27;8.80;;;;;;;18.19;21.19;97652.50;5028972;28;20037;-73
2022/03/22 09:25:50;;;;;;;30.20;8.93;;;;;;;17.97;21.41;97653.63;5027885;28;20551;-73
2022/03/22 09:28:17;;;;;;;36.88;9.73;;;;;;;17.74;22.31;97646.78;5028448;28;20133;-73
2022/03/22 09:30:45;;;;;;;25.30;9.02;;;;;;;17.65;21.97;97648.78;5028306;28;20061;-75
2022/03/22 09:33:12;;;;;;;37.58;10.35;;;;;;;17.59;21.33;97659.19;5028176;28;20053;-73
2022/03/22 09:35:38;;;;;;;31.80;10.20;;;;;;;17.30;21.96;97656.38;5028401;28;20100;-73
2022/03/22 09:38:05;;;;;;;33.72;9.57;;;;;;;17.50;21.84;97654.84;5027793;28;20468;-73
2022/03/22 09:40:32;;;;;;;22.17;8.52;;;;;;;17.64;22.10;97658.97;5028429;28;20456;-74
2022/03/22 09:43:00;;;;;;;28.65;9.13;;;;;;;17.73;22.01;97658.94;5029401;28;20049;-73
2022/03/22 09:45:29;;;;;;;31.67;9.27;;;;;;;17.68;21.60;97650.84;5027899;28;20112;-73
2022/03/22 09:47:56;;;;;;;32.17;9.65;;;;;;;17.68;21.59;97656.34;5027621;28;20543;-73
2022/03/22 09:51:44;;;;;;;29.10;9.65;;;;;;;17.77;22.04;97650.84;5028177;28;20050;-74
2022/03/22 09:53:10;;;;;;;24.80;8.75;;;;;;;18.12;21.72;97656.94;5027031;28;20037;-73
2022/03/22 09:55:37;;;;;;;25.67;8.63;;;;;;;18.34;22.76;97644.75;5028308;28;20751;-73
2022/03/22 09:58:05;;;;;;;27.05;9.10;;;;;;;18.45;21.43;97652.28;5027525;28;20059;-73
2022/03/22 10:00:32;;;;;;;31.83;9.57;;;;;;;18.74;22.92;97653.34;5027941;28;20068;-73
2022/03/22 10:02:59;;;;;;;28.75;9.65;;;;;;;19.00;21.13;97655.84;5027537;28;20738;-72
2022/03/22 10:05:28;;;;;;;34.50;10.35;;;;;;;18.90;20.90;97657.09;5026130;28;20049;-72
2022/03/22 10:07:59;;;;;;;31.42;9.88;;;;;;;18.83;21.50;97648.53;5030108;28;20053;-72
2022/03/22 10:10:27;;;;;;;22.92;8.93;;;;;;;18.77;22.00;97644.41;5026297;28;20057;-73
2022/03/22 10:12:59;;;;;;;22.80;8.63;;;;;;;18.58;21.26;97644.84;5029378;28;20045;-73
2022/03/22 10:15:36;;;;;;;29.95;10.50;;;;;;;18.45;21.14;97640.44;5026793;28;20715;-73
2022/03/22 10:18:05;;;;;;;40.00;10.85;;;;;;;18.38;22.13;97641.00;5026731;28;20053;-73
2022/03/22 10:20:33;;;;;;;25.17;9.07;;;;;;;18.28;22.80;97626.81;5027628;28;20133;-72
2022/03/22 10:23:01;;;;;;;36.65;10.93;;;;;;;18.25;22.05;97633.78;5033470;28;20094;-73
2022/03/22 10:25:31;;;;;;;26.42;9.10;;;;;;;18.05;21.61;97631.84;5047269;28;20052;-73
2022/03/22 10:27:59;;;;;;;27.13;9.65;;;;;;;17.82;22.84;97623.91;5046587;28;20755;-73
2022/03/22 10:30:26;;;;;;;28.45;9.52;;;;;;;17.62;23.00;97625.44;5047373;28;20049;-73
2022/03/22 10:32:54;;;;;;;26.30;8.77;;;;;;;17.65;23.77;97621.22;5047007;28;20116;-73
2022/03/22 10:35:23;;;;;;;32.40;9.95;;;;;;;17.56;23.07;97625.97;5047488;28;20087;-73
2022/03/22 10:37:51;;;;;;;28.75;9.13;;;;;;;17.08;23.71;97627.16;5046300;28;20049;-73
2022/03/22 10:40:23;;;;;;;33.30;10.30;;;;;;;16.89;24.34;97625.59;5046932;28;20452;-73
2022/03/22 10:42:50;;;;;;;26.27;9.25;;;;;;;16.88;24.54;97628.69;5036051;28;20048;-74
2022/03/22 10:45:17;;;;;;;42.38;11.95;;;;;;;16.87;25.34;97627.88;5035027;28;20453;-73
2022/03/22 10:47:44;;;;;;;26.52;9.25;;;;;;;16.88;24.50;97623.16;5027015;28;20050;-73
2022/03/22 10:50:13;;;;;;;29.90;10.25;;;;;;;16.85;24.78;97618.31;5025871;28;20057;-73
2022/03/22 10:52:55;;;;;;;31.75;9.68;;;;;;;16.81;24.48;97617.34;5035037;28;20067;-73
2022/03/22 10:55:23;;;;;;;30.30;9.95;;;;;;;16.79;24.77;97617.69;5045819;28;20048;-73
2022/03/22 10:57:53;;;;;;;34.97;10.10;;;;;;;16.84;24.37;97614.75;5046528;28;20537;-73
2022/03/22 11:00:20;;;;;;;26.08;9.30;;;;;;;16.87;24.00;97611.38;5045695;28;20802;-73
2022/03/22 11:02:49;;;;;;;37.10;10.68;;;;;;;16.92;24.70;97613.94;5046672;28;20079;-73
2022/03/22 11:05:19;;;;;;;33.35;10.13;;;;;;;16.83;24.61;97615.91;5046298;28;20151;-74
2022/03/22 11:07:47;;;;;;;37.72;10.57;;;;;;;16.91;24.74;97606.81;5046200;28;20138;-73
2022/03/22 11:10:15;;;;;;;34.83;10.30;;;;;;;17.00;25.01;97601.28;5046250;28;20073;-73
2022/03/22 11:12:42;;;;;;;32.75;10.10;;;;;;;16.96;24.97;97603.06;5045804;28;20575;-72
2022/03/22 11:15:10;;;;;;;34.70;10.38;;;;;;;16.87;24.37;97605.84;5046154;28;20053;-73
2022/03/22 11:17:37;;;;;;;29.95;9.48;;;;;;;16.86;24.55;97598.75;5040541;28;20049;-73
2022/03/22 11:20:08;;;;;;;38.58;10.95;;;;;;;16.88;24.23;97603.91;5026253;28;20162;-73
2022/03/22 11:22:36;;;;;;;27.55;9.00;;;;;;;16.93;25.18;97592.72;5026358;28;20056;-73
2022/03/22 11:25:10;;;;;;;37.15;10.65;;;;;;;17.11;25.02;97588.75;5026060;28;20050;-73
2022/03/22 11:27:38;;;;;;;34.28;9.50;;;;;;;17.02;24.27;97589.94;5026397;28;20060;-73
2022/03/22 11:30:08;;;;;;;36.15;9.80;;;;;;;16.95;25.22;97585.75;5025289;28;20103;-73
2022/03/22 11:35:24;;;;;;;34.30;10.32;;;;;;;17.34;24.83;97583.00;5044864;28;20203;-73
2022/03/22 11:38:01;;;;;;;30.15;10.38;;;;;;;17.51;23.33;97595.88;5046344;28;20056;-73
2022/03/22 11:43:15;;;;;;;33.28;9.85;;;;;;;17.62;24.77;97589.63;5043540;28;20064;-72
2022/03/22 11:45:48;;;;;;;35.67;10.60;;;;;;;17.72;23.58;97578.25;5046333;28;20667;-72
2022/03/22 11:48:16;;;;;;;34.40;10.85;;;;;;;17.71;24.61;97578.56;5044449;28;20076;-72
2022/03/22 11:50:43;;;;;;;28.83;9.70;;;;;;;17.78;23.67;97581.63;5046434;28;20122;-72
2022/03/22 11:53:18;;;;;;;28.40;9.57;;;;;;;18.04;24.82;97572.34;5044989;28;20053;-73
2022/03/22 11:55:49;;;;;;;31.75;10.02;;;;;;;18.14;24.29;97569.19;5046350;28;20110;-75
2022/03/22 11:58:15;;;;;;;27.40;9.32;;;;;;;18.44;22.75;97567.94;5044966;28;20138;-72
2022/03/22 12:00:44;;;;;;;38.75;10.70;;;;;;;18.66;21.64;97569.50;5046328;28;20041;-73